createdAt,value
2018-09-10T00:00:08.458Z,0
2018-09-10T00:01:16.521Z,0
2018-09-10T00:02:24.601Z,0
2018-09-10T00:03:32.913Z,0
2018-09-10T00:04:40.712Z,0
2018-09-10T00:05:48.769Z,0
2018-09-10T00:06:57.046Z,0
2018-09-10T00:08:05.108Z,0
2018-09-10T00:09:13.176Z,0
2018-09-10T00:10:21.320Z,0
2018-09-10T00:11:29.303Z,0
2018-09-10T00:12:37.348Z,0
2018-09-10T00:13:45.554Z,0
2018-09-10T00:14:53.524Z,0
2018-09-10T00:16:01.556Z,0
2018-09-10T00:17:09.610Z,0
2018-09-10T00:18:17.670Z,0
2018-09-10T00:19:25.731Z,0
2018-09-10T00:20:33.791Z,0
2018-09-10T00:21:41.864Z,0
2018-09-10T00:22:49.954Z,0
2018-09-10T00:23:57.980Z,0
2018-09-10T00:25:06.051Z,0
2018-09-10T00:26:14.104Z,0
2018-09-10T00:27:22.361Z,0
2018-09-10T00:28:30.456Z,0
2018-09-10T00:29:38.512Z,0
2018-09-10T00:30:46.566Z,0
2018-09-10T00:31:54.621Z,0
2018-09-10T00:33:02.664Z,0
2018-09-10T00:34:10.753Z,0
2018-09-10T00:35:18.813Z,0
2018-09-10T00:36:26.888Z,0
2018-09-10T00:37:34.939Z,0
2018-09-10T00:38:42.968Z,0
2018-09-10T00:39:51.069Z,0
2018-09-10T00:40:59.121Z,0
2018-09-10T00:42:07.192Z,0
2018-09-10T00:43:15.257Z,0
2018-09-10T00:44:23.286Z,0
2018-09-10T00:45:31.384Z,0
2018-09-10T00:46:39.438Z,0
2018-09-10T00:47:47.549Z,0
2018-09-10T00:48:55.565Z,0
2018-09-10T00:50:03.630Z,0
2018-09-10T00:51:11.681Z,0
2018-09-10T00:52:19.753Z,0
2018-09-10T00:53:27.809Z,0
2018-09-10T00:54:35.876Z,0
2018-09-10T00:55:43.943Z,0
2018-09-10T00:56:52.283Z,0
2018-09-10T00:58:00.069Z,0
2018-09-10T00:59:08.131Z,0
2018-09-10T01:00:16.197Z,0
2018-09-10T01:01:24.256Z,0
2018-09-10T01:02:32.317Z,0
2018-09-10T01:03:40.384Z,0
2018-09-10T01:04:48.455Z,0
2018-09-10T01:05:56.519Z,0
2018-09-10T01:07:05.030Z,0
2018-09-10T01:08:15.699Z,0
2018-09-10T01:09:24.135Z,0
2018-09-10T01:10:33.039Z,0
2018-09-10T01:11:40.364Z,0
2018-09-10T01:12:48.116Z,0
2018-09-10T01:13:56.436Z,0
2018-09-10T01:15:04.322Z,0
2018-09-10T01:16:13.492Z,0
2018-09-10T01:17:21.563Z,0
2018-09-10T01:18:29.656Z,0
2018-09-10T01:19:37.689Z,0
2018-09-10T01:20:45.751Z,0
2018-09-10T01:21:53.838Z,0
2018-09-10T01:23:02.093Z,0
2018-09-10T01:24:10.128Z,0
2018-09-10T01:25:18.202Z,0
2018-09-10T01:26:26.299Z,0
2018-09-10T01:27:34.320Z,0
2018-09-10T01:28:42.374Z,0
2018-09-10T01:29:50.449Z,0
2018-09-10T01:30:58.736Z,0
2018-09-10T01:32:06.771Z,0
2018-09-10T01:33:14.833Z,0
2018-09-10T01:34:22.874Z,0
2018-09-10T01:35:30.955Z,0
2018-09-10T01:36:39.300Z,0
2018-09-10T01:37:47.079Z,0
2018-09-10T01:38:55.150Z,0
2018-09-10T01:40:03.185Z,0
2018-09-10T01:41:11.517Z,0
2018-09-10T01:42:19.534Z,0
2018-09-10T01:43:28.651Z,0
2018-09-10T01:44:35.661Z,0
2018-09-10T01:45:43.728Z,0
2018-09-10T01:46:52.096Z,0
2018-09-10T01:47:59.850Z,0
2018-09-10T01:49:07.910Z,0
2018-09-10T01:50:15.973Z,0
2018-09-10T01:51:24.034Z,0
2018-09-10T01:52:32.113Z,0
2018-09-10T01:53:40.153Z,0
2018-09-10T01:54:48.222Z,0
2018-09-10T01:55:56.381Z,0
2018-09-10T01:57:04.421Z,0
2018-09-10T01:58:12.439Z,0
2018-09-10T01:59:21.666Z,0
2018-09-10T02:00:29.513Z,0
2018-09-10T02:01:37.207Z,0
2018-09-10T02:02:45.264Z,0
2018-09-10T02:03:53.314Z,0
2018-09-10T02:05:01.396Z,0
2018-09-10T02:06:09.461Z,0
2018-09-10T02:07:17.516Z,0
2018-09-10T02:08:25.595Z,0
2018-09-10T02:09:33.646Z,0
2018-09-10T02:10:41.973Z,0
2018-09-10T02:11:49.769Z,0
2018-09-10T02:12:57.832Z,0
2018-09-10T02:14:05.898Z,0
2018-09-10T02:15:13.962Z,0
2018-09-10T02:16:22.026Z,0
2018-09-10T02:17:30.084Z,0
2018-09-10T02:18:38.152Z,0
2018-09-10T02:19:46.212Z,0
2018-09-10T02:20:54.275Z,0
2018-09-10T02:22:02.520Z,0
2018-09-10T02:23:10.961Z,0
2018-09-10T02:24:18.860Z,0
2018-09-10T02:25:26.921Z,0
2018-09-10T02:26:35.081Z,0
2018-09-10T02:27:43.192Z,0
2018-09-10T02:28:51.107Z,0
2018-09-10T02:30:00.177Z,0
2018-09-10T02:31:07.229Z,0
2018-09-10T02:32:15.297Z,0
2018-09-10T02:33:23.431Z,0
2018-09-10T02:34:31.417Z,0
2018-09-10T02:35:39.477Z,0
2018-09-10T02:36:47.558Z,0
2018-09-10T02:37:55.617Z,0
2018-09-10T02:39:03.676Z,0
2018-09-10T02:40:11.735Z,0
2018-09-10T02:41:19.840Z,0
2018-09-10T02:42:27.865Z,0
2018-09-10T02:43:35.920Z,0
2018-09-10T02:44:43.988Z,0
2018-09-10T02:45:52.053Z,0
2018-09-10T02:47:00.141Z,0
2018-09-10T02:48:08.173Z,0
2018-09-10T02:49:16.220Z,0
2018-09-10T02:50:24.295Z,0
2018-09-10T02:51:32.397Z,0
2018-09-10T02:52:40.419Z,0
2018-09-10T02:53:48.481Z,0
2018-09-10T02:54:56.575Z,0
2018-09-10T02:56:04.598Z,0
2018-09-10T02:57:12.635Z,0
2018-09-10T02:58:20.734Z,0
2018-09-10T02:59:28.792Z,0
2018-09-10T03:00:36.851Z,0
2018-09-10T03:01:44.924Z,0
2018-09-10T03:02:52.957Z,0
2018-09-10T03:04:01.350Z,0
2018-09-10T03:05:09.160Z,0
2018-09-10T03:06:17.174Z,0
2018-09-10T03:07:25.224Z,0
2018-09-10T03:08:33.533Z,0
2018-09-10T03:09:41.573Z,0
2018-09-10T03:10:49.622Z,0
2018-09-10T03:11:57.788Z,0
2018-09-10T03:13:05.753Z,0
2018-09-10T03:14:13.805Z,0
2018-09-10T03:15:21.864Z,0
2018-09-10T03:16:29.944Z,0
2018-09-10T03:17:38.002Z,0
2018-09-10T03:18:46.050Z,0
2018-09-10T03:19:54.125Z,0
2018-09-10T03:21:02.190Z,0
2018-09-10T03:22:10.239Z,0
2018-09-10T03:23:18.302Z,0
2018-09-10T03:24:26.378Z,0
2018-09-10T03:25:34.431Z,0
2018-09-10T03:26:42.487Z,0
2018-09-10T03:27:50.572Z,0
2018-09-10T03:28:58.620Z,0
2018-09-10T03:30:06.686Z,0
2018-09-10T03:31:14.761Z,0
2018-09-10T03:32:22.780Z,0
2018-09-10T03:33:30.891Z,0
2018-09-10T03:34:38.930Z,0
2018-09-10T03:35:46.988Z,0
2018-09-10T03:36:55.060Z,0
2018-09-10T03:38:03.091Z,0
2018-09-10T03:39:11.179Z,0
2018-09-10T03:40:19.237Z,0
2018-09-10T03:41:27.307Z,0
2018-09-10T03:42:35.373Z,0
2018-09-10T03:43:43.437Z,0
2018-09-10T03:44:51.502Z,0
2018-09-10T03:45:59.556Z,0
2018-09-10T03:47:07.632Z,0
2018-09-10T03:48:15.684Z,0
2018-09-10T03:49:23.753Z,0
2018-09-10T03:50:31.805Z,0
2018-09-10T03:51:39.868Z,0
2018-09-10T03:52:47.934Z,0
2018-09-10T03:53:56.001Z,0
2018-09-10T03:55:04.058Z,0
2018-09-10T03:56:12.115Z,0
2018-09-10T03:57:20.433Z,0
2018-09-10T03:58:28.247Z,0
2018-09-10T03:59:36.513Z,0
2018-09-10T04:00:44.824Z,0
2018-09-10T04:01:52.601Z,0
2018-09-10T04:03:00.698Z,0
2018-09-10T04:04:08.760Z,0
2018-09-10T04:05:16.826Z,0
2018-09-10T04:06:25.135Z,0
2018-09-10T04:07:34.012Z,0
2018-09-10T04:08:40.998Z,0
2018-09-10T04:09:50.118Z,0
2018-09-10T04:10:57.128Z,0
2018-09-10T04:12:05.196Z,0
2018-09-10T04:13:13.469Z,0
2018-09-10T04:14:21.520Z,0
2018-09-10T04:15:29.605Z,0
2018-09-10T04:16:37.920Z,0
2018-09-10T04:17:45.926Z,0
2018-09-10T04:18:53.966Z,0
2018-09-10T04:20:02.033Z,0
2018-09-10T04:21:10.096Z,0
2018-09-10T04:22:18.159Z,0
2018-09-10T04:23:26.223Z,4
2018-09-10T04:24:34.296Z,4
2018-09-10T04:25:42.359Z,0
2018-09-10T04:26:50.411Z,4
2018-09-10T04:27:58.485Z,4
2018-09-10T04:29:06.541Z,4
2018-09-10T04:30:14.601Z,4
2018-09-10T04:31:22.643Z,8
2018-09-10T04:32:30.721Z,8
2018-09-10T04:33:38.783Z,12
2018-09-10T04:34:46.852Z,16
2018-09-10T04:35:54.936Z,16
2018-09-10T04:37:02.964Z,24
2018-09-10T04:38:11.031Z,28
2018-09-10T04:39:19.093Z,36
2018-09-10T04:40:27.253Z,44
2018-09-10T04:41:35.592Z,48
2018-09-10T04:42:43.258Z,56
2018-09-10T04:43:51.347Z,68
2018-09-10T04:44:59.421Z,80
2018-09-10T04:46:10.009Z,96
2018-09-10T04:47:16.113Z,108
2018-09-10T04:48:24.054Z,128
2018-09-10T04:49:31.922Z,144
2018-09-10T04:50:40.983Z,164
2018-09-10T04:51:48.002Z,188
2018-09-10T04:52:56.042Z,216
2018-09-10T04:54:05.139Z,240
2018-09-10T04:55:12.159Z,264
2018-09-10T04:56:20.237Z,296
2018-09-10T04:57:28.762Z,324
2018-09-10T04:58:36.352Z,356
2018-09-10T04:59:44.420Z,388
2018-09-10T05:00:52.475Z,424
2018-09-10T05:02:01.305Z,460
2018-09-10T05:03:08.714Z,500
2018-09-10T05:04:16.984Z,540
2018-09-10T05:05:25.302Z,576
2018-09-10T05:06:33.033Z,612
2018-09-10T05:07:41.067Z,652
2018-09-10T05:08:49.117Z,692
2018-09-10T05:09:57.301Z,732
2018-09-10T05:11:05.251Z,772
2018-09-10T05:12:13.303Z,816
2018-09-10T05:13:21.363Z,856
2018-09-10T05:14:29.425Z,900
2018-09-10T05:15:37.508Z,940
2018-09-10T05:16:45.586Z,976
2018-09-10T05:17:53.624Z,1016
2018-09-10T05:19:01.913Z,1056
2018-09-10T05:20:09.945Z,1092
2018-09-10T05:21:17.998Z,1132
2018-09-10T05:22:26.073Z,1164
2018-09-10T05:23:34.143Z,1200
2018-09-10T05:24:42.480Z,1228
2018-09-10T05:25:50.271Z,1260
2018-09-10T05:26:58.345Z,1280
2018-09-10T05:28:06.443Z,1296
2018-09-10T05:29:14.459Z,1300
2018-09-10T05:30:22.532Z,1332
2018-09-10T05:31:30.581Z,1384
2018-09-10T05:32:38.636Z,1424
2018-09-10T05:33:46.714Z,1436
2018-09-10T05:34:54.755Z,1472
2018-09-10T05:36:02.797Z,1556
2018-09-10T05:37:10.924Z,1612
2018-09-10T05:38:18.934Z,1652
2018-09-10T05:39:27.000Z,1684
2018-09-10T05:40:35.057Z,1716
2018-09-10T05:41:43.318Z,1744
2018-09-10T05:42:51.417Z,1768
2018-09-10T05:43:59.464Z,1796
2018-09-10T05:45:07.519Z,1824
2018-09-10T05:46:15.612Z,1848
2018-09-10T05:47:23.696Z,1872
2018-09-10T05:48:31.711Z,1896
2018-09-10T05:49:39.777Z,1920
2018-09-10T05:50:47.822Z,1944
2018-09-10T05:51:55.908Z,1976
2018-09-10T05:53:04.004Z,2004
2018-09-10T05:54:12.022Z,2028
2018-09-10T05:55:20.088Z,2056
2018-09-10T05:56:28.185Z,2076
2018-09-10T05:57:36.253Z,2096
2018-09-10T05:58:44.275Z,2116
2018-09-10T05:59:52.372Z,2136
2018-09-10T06:01:00.723Z,2164
2018-09-10T06:02:08.456Z,2176
2018-09-10T06:03:18.620Z,2192
2018-09-10T06:04:24.596Z,2216
2018-09-10T06:05:32.620Z,2236
2018-09-10T06:06:40.716Z,2256
2018-09-10T06:07:48.875Z,2272
2018-09-10T06:08:56.828Z,2292
2018-09-10T06:10:04.948Z,2308
2018-09-10T06:11:12.931Z,2332
2018-09-10T06:12:21.067Z,2364
2018-09-10T06:13:29.149Z,2376
2018-09-10T06:14:37.146Z,2380
2018-09-10T06:15:45.218Z,2396
2018-09-10T06:16:54.324Z,2420
2018-09-10T06:18:01.344Z,2448
2018-09-10T06:19:09.400Z,2892
2018-09-10T06:20:17.466Z,4700
2018-09-10T06:21:25.537Z,3512
2018-09-10T06:22:33.593Z,2844
2018-09-10T06:23:41.662Z,2852
2018-09-10T06:24:49.729Z,3124
2018-09-10T06:25:57.800Z,3392
2018-09-10T06:27:05.858Z,3640
2018-09-10T06:28:14.215Z,3772
2018-09-10T06:29:21.984Z,3852
2018-09-10T06:30:30.045Z,2812
2018-09-10T06:31:38.101Z,2736
2018-09-10T06:32:46.171Z,2760
2018-09-10T06:33:54.535Z,2756
2018-09-10T06:35:02.294Z,4204
2018-09-10T06:36:10.354Z,4304
2018-09-10T06:37:18.502Z,3144
2018-09-10T06:38:26.480Z,3724
2018-09-10T06:39:34.563Z,4340
2018-09-10T06:40:42.597Z,2800
2018-09-10T06:41:50.680Z,2836
2018-09-10T06:42:58.739Z,4212
2018-09-10T06:44:07.442Z,5168
2018-09-10T06:45:14.865Z,5836
2018-09-10T06:46:23.002Z,4284
2018-09-10T06:47:31.055Z,2892
2018-09-10T06:48:39.078Z,3040
2018-09-10T06:49:47.132Z,3056
2018-09-10T06:50:55.193Z,3136
2018-09-10T06:52:03.235Z,6576
2018-09-10T06:53:11.310Z,6340
2018-09-10T06:54:19.396Z,3864
2018-09-10T06:55:27.461Z,4240
2018-09-10T06:56:35.733Z,5588
2018-09-10T06:57:43.791Z,3852
2018-09-10T06:58:51.847Z,5324
2018-09-10T06:59:59.922Z,6628
2018-09-10T07:01:08.219Z,7368
2018-09-10T07:02:16.280Z,6312
2018-09-10T07:03:24.347Z,8016
2018-09-10T07:04:32.397Z,12108
2018-09-10T07:05:40.485Z,22112
2018-09-10T07:06:48.538Z,13228
2018-09-10T07:07:56.620Z,5928
2018-09-10T07:09:04.672Z,12916
2018-09-10T07:10:12.709Z,27488
2018-09-10T07:11:20.799Z,30848
2018-09-10T07:12:31.054Z,30816
2018-09-10T07:13:36.920Z,31488
2018-09-10T07:14:50.870Z,30816
2018-09-10T07:15:58.922Z,30688
2018-09-10T07:17:07.000Z,28704
2018-09-10T07:18:26.248Z,26080
2018-09-10T07:19:29.729Z,24640
2018-09-10T07:20:33.403Z,23808
2018-09-10T07:21:41.584Z,23264
2018-09-10T07:22:49.552Z,23648
2018-09-10T07:23:58.154Z,24512
2018-09-10T07:25:05.782Z,24416
2018-09-10T07:26:13.764Z,25184
2018-09-10T07:27:30.966Z,25248
2018-09-10T07:28:36.797Z,25952
2018-09-10T07:29:48.832Z,28064
2018-09-10T07:30:52.512Z,27776
2018-09-10T07:32:00.588Z,28192
2018-09-10T07:33:11.259Z,33248
2018-09-10T07:34:19.333Z,43456
2018-09-10T07:35:27.409Z,50944
2018-09-10T07:36:41.556Z,45120
2018-09-10T07:37:49.622Z,43072
2018-09-10T07:38:57.686Z,39200
2018-09-10T07:40:06.034Z,40032
2018-09-10T07:41:17.723Z,41120
2018-09-10T07:42:28.344Z,41024
2018-09-10T07:43:36.278Z,40896
2018-09-10T07:44:46.532Z,41440
2018-09-10T07:46:00.562Z,42528
2018-09-10T07:47:08.541Z,42656
2018-09-10T07:48:16.881Z,43872
2018-09-10T07:49:24.683Z,45504
2018-09-10T07:50:32.745Z,46112
2018-09-10T07:51:40.842Z,45152
2018-09-10T07:52:48.919Z,43232
2018-09-10T07:53:57.040Z,45696
2018-09-10T07:55:05.065Z,48096
2018-09-10T07:56:13.125Z,45824
2018-09-10T07:57:21.428Z,45664
2018-09-10T07:58:29.662Z,47360
2018-09-10T07:59:37.360Z,48512
2018-09-10T08:00:45.504Z,49120
2018-09-10T08:01:53.738Z,49600
2018-09-10T08:03:01.837Z,49984
2018-09-10T08:04:09.906Z,49824
2018-09-10T08:05:17.959Z,49536
2018-09-10T08:06:26.044Z,52576
2018-09-10T08:07:34.102Z,52224
2018-09-10T08:08:42.223Z,51456
2018-09-10T08:09:50.555Z,53152
2018-09-10T08:11:18.291Z,53952
2018-09-10T08:12:09.072Z,55552
2018-09-10T08:13:17.122Z,54144
2018-09-10T08:14:25.204Z,56672
2018-09-10T08:15:33.250Z,55904
2018-09-10T08:16:41.454Z,50880
2018-09-10T08:17:49.435Z,55680
2018-09-10T08:18:57.515Z,52256
2018-09-10T08:20:05.597Z,51936
2018-09-10T08:22:30.824Z,56704
2018-09-10T08:23:38.900Z,53984
2018-09-10T08:24:46.981Z,55360
2018-09-10T08:25:55.067Z,55456
2018-09-10T08:27:03.114Z,59488
2018-09-10T08:28:11.264Z,60832
2018-09-10T08:29:19.653Z,61440
2018-09-10T08:30:27.651Z,62656
2018-09-10T08:31:35.453Z,61216
2018-09-10T08:32:43.521Z,58976
2018-09-10T08:33:51.595Z,53312
2018-09-10T08:35:00.557Z,50528
2018-09-10T08:36:07.787Z,52352
2018-09-10T08:37:15.843Z,53056
2018-09-10T08:38:23.924Z,58304
2018-09-10T08:39:31.999Z,62016
2018-09-10T08:40:40.082Z,48192
2018-09-10T08:41:48.168Z,11824
2018-09-10T08:42:56.300Z,4004
2018-09-10T08:44:04.307Z,3992
2018-09-10T08:45:12.465Z,4000
2018-09-10T08:46:20.451Z,4020
2018-09-10T08:47:28.570Z,4068
2018-09-10T08:48:39.487Z,4120
2018-09-10T08:49:47.300Z,4196
2018-09-10T08:50:55.465Z,4304
2018-09-10T08:52:03.477Z,4456
2018-09-10T08:53:11.625Z,4700
2018-09-10T08:54:19.726Z,4992
2018-09-10T08:55:27.791Z,5352
2018-09-10T08:56:35.751Z,5728
2018-09-10T08:57:43.810Z,6096
2018-09-10T08:58:51.903Z,6416
2018-09-10T08:59:59.981Z,6704
2018-09-10T09:01:08.051Z,6952
2018-09-10T09:02:16.121Z,7184
2018-09-10T09:03:24.197Z,7360
2018-09-10T09:04:32.258Z,7328
2018-09-10T09:05:40.325Z,7356
2018-09-10T09:06:48.396Z,7280
2018-09-10T09:07:56.487Z,6748
2018-09-10T09:09:04.549Z,6480
2018-09-10T09:10:12.598Z,7172
2018-09-10T09:11:21.001Z,7348
2018-09-10T09:12:29.007Z,7424
2018-09-10T09:13:37.027Z,7464
2018-09-10T09:14:45.119Z,7112
2018-09-10T09:15:53.158Z,7428
2018-09-10T09:17:01.249Z,7900
2018-09-10T09:18:09.650Z,8088
2018-09-10T09:19:17.407Z,8136
2018-09-10T09:20:25.471Z,8056
2018-09-10T09:21:34.648Z,8116
2018-09-10T09:23:52.955Z,8048
2018-09-10T09:25:09.934Z,7868
2018-09-10T09:26:09.070Z,7556
2018-09-10T09:27:17.135Z,7236
2018-09-10T09:28:25.191Z,6868
2018-09-10T09:29:33.280Z,6424
2018-09-10T09:30:41.346Z,6052
2018-09-10T09:31:49.406Z,5756
2018-09-10T09:32:57.482Z,5496
2018-09-10T09:34:05.564Z,5360
2018-09-10T09:35:13.885Z,5212
2018-09-10T09:36:21.788Z,5008
2018-09-10T09:37:29.772Z,4928
2018-09-10T09:38:37.886Z,4912
2018-09-10T09:39:45.917Z,4904
2018-09-10T09:40:53.980Z,4896
2018-09-10T09:42:03.464Z,4976
2018-09-10T09:43:12.128Z,4984
2018-09-10T09:44:19.991Z,4996
2018-09-10T09:45:28.080Z,5112
2018-09-10T09:46:36.153Z,5244
2018-09-10T09:47:44.212Z,5476
2018-09-10T09:48:52.289Z,5708
2018-09-10T09:50:00.347Z,5888
2018-09-10T09:51:08.468Z,6104
2018-09-10T09:52:16.520Z,6340
2018-09-10T09:53:24.570Z,6600
2018-09-10T09:54:32.606Z,6884
2018-09-10T09:55:41.005Z,7076
2018-09-10T09:56:48.885Z,7240
2018-09-10T09:57:56.850Z,7336
2018-09-10T09:59:04.919Z,7340
2018-09-10T10:00:12.964Z,7228
2018-09-10T10:01:21.054Z,7256
2018-09-10T10:02:29.217Z,7292
2018-09-10T10:03:37.403Z,7328
2018-09-10T10:04:45.487Z,7448
2018-09-10T10:05:53.553Z,7724
2018-09-10T10:08:18.780Z,8628
2018-09-10T10:09:26.842Z,9024
2018-09-10T10:10:34.915Z,9432
2018-09-10T10:11:43.106Z,9700
2018-09-10T10:12:51.053Z,9820
2018-09-10T10:13:59.130Z,9588
2018-09-10T10:15:07.203Z,9340
2018-09-10T10:16:15.293Z,9000
2018-09-10T10:17:23.559Z,8476
2018-09-10T10:18:31.675Z,7868
2018-09-10T10:19:39.692Z,7596
2018-09-10T10:20:47.761Z,7264
2018-09-10T10:21:55.898Z,6816
2018-09-10T10:23:03.897Z,6632
2018-09-10T10:24:11.958Z,6440
2018-09-10T10:25:21.296Z,6496
2018-09-10T10:26:28.328Z,6676
2018-09-10T10:27:36.400Z,6872
2018-09-10T10:28:44.466Z,6984
2018-09-10T10:29:52.834Z,7168
2018-09-10T10:31:00.618Z,7432
2018-09-10T10:32:08.737Z,7620
2018-09-10T10:33:16.760Z,7916
2018-09-10T10:34:24.843Z,8212
2018-09-10T10:35:32.878Z,8424
2018-09-10T10:36:40.978Z,8480
2018-09-10T10:37:49.043Z,8524
2018-09-10T10:38:57.112Z,8528
2018-09-10T10:40:21.972Z,8700
2018-09-10T10:41:14.757Z,8996
2018-09-10T10:42:22.707Z,9360
2018-09-10T10:43:31.065Z,9808
2018-09-10T10:44:38.887Z,10360
2018-09-10T10:45:46.946Z,10796
2018-09-10T10:46:55.078Z,11380
2018-09-10T10:48:03.069Z,11712
2018-09-10T10:49:11.160Z,12208
2018-09-10T10:50:19.241Z,12684
2018-09-10T10:51:27.324Z,13180
2018-09-10T10:52:35.373Z,13676
2018-09-10T10:53:43.475Z,13996
2018-09-10T10:54:51.799Z,14264
2018-09-10T10:55:59.610Z,14432
2018-09-10T10:57:08.024Z,14612
2018-09-10T10:58:15.742Z,14948
2018-09-10T10:59:24.073Z,15288
2018-09-10T11:00:31.889Z,15536
2018-09-10T11:01:39.974Z,15676
2018-09-10T11:02:48.043Z,15932
2018-09-10T11:03:56.123Z,16072
2018-09-10T11:05:04.181Z,16168
2018-09-10T11:06:12.249Z,16204
2018-09-10T11:07:20.317Z,16184
2018-09-10T11:08:28.401Z,16100
2018-09-10T11:09:36.485Z,16032
2018-09-10T11:10:44.548Z,16032
2018-09-10T11:11:52.596Z,16016
2018-09-10T11:13:00.687Z,16000
2018-09-10T11:14:08.855Z,15940
2018-09-10T11:15:16.841Z,15824
2018-09-10T11:16:24.902Z,15712
2018-09-10T11:17:33.234Z,15512
2018-09-10T11:18:41.065Z,15388
2018-09-10T11:19:49.117Z,15264
2018-09-10T11:20:57.269Z,15092
2018-09-10T11:22:06.700Z,14940
2018-09-10T11:23:17.049Z,14760
2018-09-10T11:24:25.157Z,14500
2018-09-10T11:25:33.104Z,14164
2018-09-10T11:26:41.217Z,13772
2018-09-10T11:27:49.293Z,13340
2018-09-10T11:28:57.335Z,12928
2018-09-10T11:30:05.417Z,12548
2018-09-10T11:31:13.485Z,12116
2018-09-10T11:32:21.576Z,11640
2018-09-10T11:33:29.625Z,11156
2018-09-10T11:34:37.814Z,10564
2018-09-10T11:35:45.843Z,9844
2018-09-10T11:36:53.864Z,9068
2018-09-10T11:38:02.166Z,8296
2018-09-10T11:39:10.008Z,7704
2018-09-10T11:40:18.124Z,7192
2018-09-10T11:41:26.163Z,6720
2018-09-10T11:42:34.220Z,6140
2018-09-10T11:43:42.295Z,5840
2018-09-10T11:44:50.370Z,5644
2018-09-10T11:45:58.458Z,5556
2018-09-10T11:47:06.510Z,5460
2018-09-10T11:48:18.838Z,5348
2018-09-10T11:49:26.906Z,5216
2018-09-10T11:50:34.973Z,5064
2018-09-10T11:51:43.215Z,4892
2018-09-10T11:52:55.558Z,4764
2018-09-10T11:54:04.335Z,4668
2018-09-10T11:55:12.300Z,4600
2018-09-10T11:56:20.376Z,4608
2018-09-10T11:57:28.449Z,4644
2018-09-10T11:58:36.516Z,4660
2018-09-10T11:59:44.590Z,4652
2018-09-10T12:00:52.899Z,4684
2018-09-10T12:02:03.449Z,4708
2018-09-10T12:03:11.422Z,4760
2018-09-10T12:04:19.502Z,4852
2018-09-10T12:05:28.527Z,4932
2018-09-10T12:06:35.643Z,5024
2018-09-10T12:07:43.711Z,5120
2018-09-10T12:08:51.794Z,5192
2018-09-10T12:09:59.865Z,5292
2018-09-10T12:11:07.941Z,5388
2018-09-10T12:12:16.004Z,5408
2018-09-10T12:13:24.093Z,5392
2018-09-10T12:14:32.153Z,5416
2018-09-10T12:15:40.216Z,5444
2018-09-10T12:16:48.313Z,5440
2018-09-10T12:17:56.464Z,5456
2018-09-10T12:19:04.478Z,5612
2018-09-10T12:20:12.750Z,5892
2018-09-10T12:21:20.629Z,6148
2018-09-10T12:22:33.916Z,6364
2018-09-10T12:23:36.723Z,6604
2018-09-10T12:24:44.802Z,6812
2018-09-10T12:25:52.845Z,6976
2018-09-10T12:27:00.950Z,7108
2018-09-10T12:28:09.009Z,7160
2018-09-10T12:29:17.157Z,7256
2018-09-10T12:30:25.163Z,7352
2018-09-10T12:31:33.203Z,7384
2018-09-10T12:32:41.306Z,7496
2018-09-10T12:33:49.388Z,7584
2018-09-10T12:34:57.454Z,7684
2018-09-10T12:36:05.530Z,7820
2018-09-10T12:37:13.595Z,8176
2018-09-10T12:38:21.688Z,8532
2018-09-10T12:39:29.807Z,9044
2018-09-10T12:40:38.025Z,9644
2018-09-10T12:41:46.084Z,10208
2018-09-10T12:42:54.164Z,10732
2018-09-10T12:44:02.507Z,11208
2018-09-10T12:45:10.302Z,11716
2018-09-10T12:46:18.443Z,11700
2018-09-10T12:47:26.453Z,11440
2018-09-10T12:48:36.078Z,11592
2018-09-10T12:49:42.574Z,11484
2018-09-10T12:50:50.883Z,11244
2018-09-10T12:51:58.943Z,10764
2018-09-10T12:53:07.019Z,10064
2018-09-10T12:54:15.186Z,9472
2018-09-10T12:55:23.174Z,8856
2018-09-10T12:56:31.335Z,8336
2018-09-10T12:57:39.310Z,8060
2018-09-10T12:58:47.437Z,8052
2018-09-10T12:59:55.456Z,8200
2018-09-10T13:01:03.617Z,8240
2018-09-10T13:02:11.745Z,8352
2018-09-10T13:03:19.787Z,8484
2018-09-10T13:04:27.751Z,8636
2018-09-10T13:05:35.840Z,8832
2018-09-10T13:06:43.902Z,8980
2018-09-10T13:07:52.070Z,9108
2018-09-10T13:09:00.052Z,9168
2018-09-10T13:10:08.112Z,9196
2018-09-10T13:11:16.403Z,9240
2018-09-10T13:12:24.457Z,9100
2018-09-10T13:13:32.564Z,9064
2018-09-10T13:14:40.876Z,9164
2018-09-10T13:15:48.688Z,9064
2018-09-10T13:16:56.759Z,9012
2018-09-10T13:18:04.872Z,9080
2018-09-10T13:19:12.877Z,9148
2018-09-10T13:20:20.989Z,8824
2018-09-10T13:21:29.051Z,8060
2018-09-10T13:22:37.157Z,7632
2018-09-10T13:23:45.462Z,7364
2018-09-10T13:24:53.245Z,7152
2018-09-10T13:26:01.337Z,7016
2018-09-10T13:27:09.417Z,6876
2018-09-10T13:28:17.703Z,6708
2018-09-10T13:29:25.786Z,6580
2018-09-10T13:30:33.836Z,6580
2018-09-10T13:31:41.921Z,6612
2018-09-10T13:32:49.988Z,6660
2018-09-10T13:33:58.055Z,6868
2018-09-10T13:35:06.420Z,7120
2018-09-10T13:36:14.417Z,6940
2018-09-10T13:37:22.453Z,6804
2018-09-10T13:38:30.793Z,6560
2018-09-10T13:39:38.826Z,6276
2018-09-10T13:40:47.018Z,6204
2018-09-10T13:41:54.970Z,6140
2018-09-10T13:43:03.108Z,6144
2018-09-10T13:44:11.128Z,6164
2018-09-10T13:45:19.280Z,6300
2018-09-10T13:46:27.267Z,6372
2018-09-10T13:47:35.463Z,6344
2018-09-10T13:48:43.402Z,6304
2018-09-10T13:49:51.755Z,6356
2018-09-10T13:50:59.534Z,6300
2018-09-10T13:52:07.627Z,6360
2018-09-10T13:53:15.976Z,6376
2018-09-10T13:54:23.767Z,6376
2018-09-10T13:55:31.843Z,6504
2018-09-10T13:56:39.906Z,6472
2018-09-10T13:57:47.986Z,6484
2018-09-10T13:58:56.049Z,6448
2018-09-10T14:00:04.219Z,6440
2018-09-10T14:01:12.393Z,6380
2018-09-10T14:02:20.483Z,6284
2018-09-10T14:03:28.546Z,6316
2018-09-10T14:04:36.622Z,6332
2018-09-10T14:05:44.697Z,6352
2018-09-10T14:06:52.731Z,6364
2018-09-10T14:08:00.910Z,6376
2018-09-10T14:09:08.909Z,6340
2018-09-10T14:10:16.984Z,6276
2018-09-10T14:11:25.318Z,6188
2018-09-10T14:12:33.101Z,6028
2018-09-10T14:13:41.200Z,5852
2018-09-10T14:14:49.265Z,5716
2018-09-10T14:15:57.332Z,5596
2018-09-10T14:17:05.407Z,5484
2018-09-10T14:18:13.640Z,5268
2018-09-10T14:19:21.581Z,5100
2018-09-10T14:20:29.629Z,4964
2018-09-10T14:21:37.703Z,4972
2018-09-10T14:22:45.772Z,5020
2018-09-10T14:23:53.848Z,5068
2018-09-10T14:25:02.108Z,5120
2018-09-10T14:26:10.193Z,5196
2018-09-10T14:27:18.270Z,5372
2018-09-10T14:28:26.331Z,5468
2018-09-10T14:29:34.407Z,5580
2018-09-10T14:30:42.478Z,5748
2018-09-10T14:31:50.546Z,5900
2018-09-10T14:32:58.636Z,5996
2018-09-10T14:34:06.697Z,6080
2018-09-10T14:35:14.774Z,6108
2018-09-10T14:36:22.889Z,6136
2018-09-10T14:37:30.907Z,5980
2018-09-10T14:38:38.991Z,5824
2018-09-10T14:39:47.052Z,5656
2018-09-10T14:40:55.162Z,5492
2018-09-10T14:42:03.279Z,5396
2018-09-10T14:43:11.328Z,5236
2018-09-10T14:44:19.346Z,5084
2018-09-10T14:45:27.430Z,4960
2018-09-10T14:46:35.536Z,4836
2018-09-10T14:47:43.568Z,4772
2018-09-10T14:48:51.638Z,4772
2018-09-10T14:50:00.305Z,4844
2018-09-10T14:51:08.382Z,4924
2018-09-10T14:52:16.445Z,5032
2018-09-10T14:53:25.942Z,5164
2018-09-10T14:54:45.466Z,5268
2018-09-10T14:55:40.668Z,5356
2018-09-10T14:56:48.725Z,5400
2018-09-10T14:57:56.824Z,5416
2018-09-10T14:59:04.881Z,5408
2018-09-10T15:00:12.923Z,5392
2018-09-10T15:01:21.294Z,5364
2018-09-10T15:02:29.372Z,5356
2018-09-10T15:03:37.161Z,5348
2018-09-10T15:04:45.229Z,5360
2018-09-10T15:05:53.357Z,5404
2018-09-10T15:07:01.426Z,5428
2018-09-10T15:08:09.455Z,5540
2018-09-10T15:09:17.527Z,5668
2018-09-10T15:10:25.617Z,5776
2018-09-10T15:11:34.015Z,5848
2018-09-10T15:12:42.058Z,5908
2018-09-10T15:13:49.810Z,5948
2018-09-10T15:14:58.618Z,6024
2018-09-10T15:16:05.952Z,6112
2018-09-10T15:17:14.032Z,6120
2018-09-10T15:18:22.143Z,6060
2018-09-10T15:19:30.170Z,6048
2018-09-10T15:20:38.484Z,6040
2018-09-10T15:21:47.553Z,6036
2018-09-10T15:22:54.588Z,6036
2018-09-10T15:24:02.630Z,6076
2018-09-10T15:25:10.728Z,6072
2018-09-10T15:26:18.805Z,6012
2018-09-10T15:27:26.894Z,5920
2018-09-10T15:28:36.054Z,5828
2018-09-10T15:29:42.997Z,5748
2018-09-10T15:30:51.360Z,5568
2018-09-10T15:31:59.164Z,5440
2018-09-10T15:33:07.243Z,5296
2018-09-10T15:34:15.321Z,5180